sensor_id;sensor_type;location;lat;lon;timestamp;P1;durP1;ratioP1;P2;durP2;ratioP2
41512;SDS011;27244;59.940;30.280;2023-02-15T00:01:41;14.48;;;9.32;;
41512;SDS011;27244;59.940;30.280;2023-02-15T00:04:12;16.20;;;9.10;;
41512;SDS011;27244;59.940;30.280;2023-02-15T00:06:41;15.00;;;8.82;;
41512;SDS011;27244;59.940;30.280;2023-02-15T00:09:08;11.45;;;9.27;;
41512;SDS011;27244;59.940;30.280;2023-02-15T00:11:36;12.82;;;9.13;;
41512;SDS011;27244;59.940;30.280;2023-02-15T00:14:06;13.48;;;9.05;;
41512;SDS011;27244;59.940;30.280;2023-02-15T00:16:35;14.02;;;9.48;;
41512;SDS011;27244;59.940;30.280;2023-02-15T00:19:03;12.32;;;8.98;;
41512;SDS011;27244;59.940;30.280;2023-02-15T00:21:31;13.23;;;9.18;;
41512;SDS011;27244;59.940;30.280;2023-02-15T00:24:00;12.35;;;8.55;;
41512;SDS011;27244;59.940;30.280;2023-02-15T00:26:28;10.95;;;8.93;;
41512;SDS011;27244;59.940;30.280;2023-02-15T00:28:55;17.73;;;9.63;;
41512;SDS011;27244;59.940;30.280;2023-02-15T00:31:25;12.15;;;8.68;;
41512;SDS011;27244;59.940;30.280;2023-02-15T00:33:54;13.93;;;9.15;;
41512;SDS011;27244;59.940;30.280;2023-02-15T00:36:23;11.18;;;8.05;;
41512;SDS011;27244;59.940;30.280;2023-02-15T00:38:50;10.77;;;8.25;;
41512;SDS011;27244;59.940;30.280;2023-02-15T00:41:17;11.65;;;8.90;;
41512;SDS011;27244;59.940;30.280;2023-02-15T00:43:43;9.57;;;8.05;;
41512;SDS011;27244;59.940;30.280;2023-02-15T00:46:10;13.38;;;8.82;;
41512;SDS011;27244;59.940;30.280;2023-02-15T00:48:38;13.52;;;8.93;;
41512;SDS011;27244;59.940;30.280;2023-02-15T00:51:05;11.27;;;8.23;;
41512;SDS011;27244;59.940;30.280;2023-02-15T00:53:33;10.95;;;7.43;;
41512;SDS011;27244;59.940;30.280;2023-02-15T00:56:00;10.60;;;7.43;;
41512;SDS011;27244;59.940;30.280;2023-02-15T00:58:27;9.30;;;6.30;;
41512;SDS011;27244;59.940;30.280;2023-02-15T01:00:54;8.85;;;6.07;;
41512;SDS011;27244;59.940;30.280;2023-02-15T01:03:23;9.05;;;6.53;;
41512;SDS011;27244;59.940;30.280;2023-02-15T01:05:50;7.97;;;5.90;;
41512;SDS011;27244;59.940;30.280;2023-02-15T01:08:17;8.75;;;5.45;;
41512;SDS011;27244;59.940;30.280;2023-02-15T01:10:45;6.95;;;5.35;;
41512;SDS011;27244;59.940;30.280;2023-02-15T01:13:13;8.70;;;4.93;;
41512;SDS011;27244;59.940;30.280;2023-02-15T01:15:41;9.48;;;5.07;;
41512;SDS011;27244;59.940;30.280;2023-02-15T01:18:08;9.13;;;5.10;;
41512;SDS011;27244;59.940;30.280;2023-02-15T01:20:36;10.48;;;5.35;;
41512;SDS011;27244;59.940;30.280;2023-02-15T01:23:06;8.38;;;4.95;;
41512;SDS011;27244;59.940;30.280;2023-02-15T01:25:34;6.82;;;4.70;;
41512;SDS011;27244;59.940;30.280;2023-02-15T01:28:03;8.85;;;5.03;;
41512;SDS011;27244;59.940;30.280;2023-02-15T01:30:31;7.28;;;4.47;;
41512;SDS011;27244;59.940;30.280;2023-02-15T01:32:58;9.05;;;4.93;;
41512;SDS011;27244;59.940;30.280;2023-02-15T01:35:29;7.15;;;3.90;;
41512;SDS011;27244;59.940;30.280;2023-02-15T01:37:56;6.35;;;3.80;;
41512;SDS011;27244;59.940;30.280;2023-02-15T01:40:23;6.38;;;3.42;;
41512;SDS011;27244;59.940;30.280;2023-02-15T01:42:51;5.43;;;3.50;;
41512;SDS011;27244;59.940;30.280;2023-02-15T01:45:21;5.57;;;3.05;;
41512;SDS011;27244;59.940;30.280;2023-02-15T01:47:52;7.78;;;3.65;;
41512;SDS011;27244;59.940;30.280;2023-02-15T01:50:26;5.15;;;3.20;;
41512;SDS011;27244;59.940;30.280;2023-02-15T01:52:58;5.22;;;3.28;;
41512;SDS011;27244;59.940;30.280;2023-02-15T01:55:29;6.10;;;3.15;;
41512;SDS011;27244;59.940;30.280;2023-02-15T01:57:59;7.85;;;3.25;;
41512;SDS011;27244;59.940;30.280;2023-02-15T02:00:29;6.03;;;3.13;;
41512;SDS011;27244;59.940;30.280;2023-02-15T02:02:57;5.60;;;3.30;;
41512;SDS011;27244;59.940;30.280;2023-02-15T02:05:24;7.50;;;3.10;;
41512;SDS011;27244;59.940;30.280;2023-02-15T02:07:52;7.57;;;3.92;;
41512;SDS011;27244;59.940;30.280;2023-02-15T02:10:22;5.83;;;3.10;;
41512;SDS011;27244;59.940;30.280;2023-02-15T02:12:50;5.90;;;3.30;;
41512;SDS011;27244;59.940;30.280;2023-02-15T02:15:23;6.78;;;3.72;;
41512;SDS011;27244;59.940;30.280;2023-02-15T02:18:02;6.95;;;3.58;;
41512;SDS011;27244;59.940;30.280;2023-02-15T02:20:51;7.03;;;3.35;;
41512;SDS011;27244;59.940;30.280;2023-02-15T02:23:37;5.85;;;3.10;;
41512;SDS011;27244;59.940;30.280;2023-02-15T02:26:30;4.63;;;3.00;;
41512;SDS011;27244;59.940;30.280;2023-02-15T02:32:57;8.00;;;3.25;;
41512;SDS011;27244;59.940;30.280;2023-02-15T02:35:36;5.30;;;3.28;;
41512;SDS011;27244;59.940;30.280;2023-02-15T02:38:10;7.13;;;3.50;;
41512;SDS011;27244;59.940;30.280;2023-02-15T02:40:43;5.05;;;3.15;;
41512;SDS011;27244;59.940;30.280;2023-02-15T02:43:21;4.40;;;3.15;;
41512;SDS011;27244;59.940;30.280;2023-02-15T02:45:56;6.30;;;2.92;;
41512;SDS011;27244;59.940;30.280;2023-02-15T02:48:29;4.72;;;2.88;;
41512;SDS011;27244;59.940;30.280;2023-02-15T02:50:59;4.65;;;2.80;;
41512;SDS011;27244;59.940;30.280;2023-02-15T02:53:26;4.80;;;3.13;;
41512;SDS011;27244;59.940;30.280;2023-02-15T02:55:57;5.88;;;3.05;;
41512;SDS011;27244;59.940;30.280;2023-02-15T02:58:29;4.70;;;2.67;;
41512;SDS011;27244;59.940;30.280;2023-02-15T03:01:01;5.40;;;3.08;;
41512;SDS011;27244;59.940;30.280;2023-02-15T03:03:36;4.32;;;3.00;;
41512;SDS011;27244;59.940;30.280;2023-02-15T03:06:08;5.85;;;3.08;;
41512;SDS011;27244;59.940;30.280;2023-02-15T03:08:44;8.52;;;3.35;;
41512;SDS011;27244;59.940;30.280;2023-02-15T03:11:14;6.32;;;3.10;;
41512;SDS011;27244;59.940;30.280;2023-02-15T03:13:42;6.72;;;3.70;;
41512;SDS011;27244;59.940;30.280;2023-02-15T03:16:12;6.68;;;3.72;;
41512;SDS011;27244;59.940;30.280;2023-02-15T03:18:55;7.10;;;3.57;;
41512;SDS011;27244;59.940;30.280;2023-02-15T03:21:26;8.25;;;3.58;;
41512;SDS011;27244;59.940;30.280;2023-02-15T03:23:58;8.10;;;3.40;;
41512;SDS011;27244;59.940;30.280;2023-02-15T03:26:30;9.70;;;4.00;;
41512;SDS011;27244;59.940;30.280;2023-02-15T03:28:59;9.35;;;4.10;;
41512;SDS011;27244;59.940;30.280;2023-02-15T03:31:29;10.43;;;3.85;;
41512;SDS011;27244;59.940;30.280;2023-02-15T03:34:03;6.53;;;3.67;;
41512;SDS011;27244;59.940;30.280;2023-02-15T03:36:34;8.98;;;4.05;;
41512;SDS011;27244;59.940;30.280;2023-02-15T03:39:08;7.65;;;3.40;;
41512;SDS011;27244;59.940;30.280;2023-02-15T03:41:40;7.50;;;3.42;;
41512;SDS011;27244;59.940;30.280;2023-02-15T03:44:13;7.25;;;3.63;;
41512;SDS011;27244;59.940;30.280;2023-02-15T03:46:46;9.05;;;4.05;;
41512;SDS011;27244;59.940;30.280;2023-02-15T03:49:21;7.13;;;3.50;;
41512;SDS011;27244;59.940;30.280;2023-02-15T03:51:52;7.10;;;3.50;;
41512;SDS011;27244;59.940;30.280;2023-02-15T03:54:22;5.80;;;3.65;;
41512;SDS011;27244;59.940;30.280;2023-02-15T03:57:12;9.10;;;4.47;;
41512;SDS011;27244;59.940;30.280;2023-02-15T03:59:59;7.13;;;3.70;;
41512;SDS011;27244;59.940;30.280;2023-02-15T04:02:49;7.88;;;4.18;;
41512;SDS011;27244;59.940;30.280;2023-02-15T04:05:34;9.20;;;4.35;;
41512;SDS011;27244;59.940;30.280;2023-02-15T04:08:01;6.22;;;3.83;;
41512;SDS011;27244;59.940;30.280;2023-02-15T04:10:28;8.80;;;4.30;;
41512;SDS011;27244;59.940;30.280;2023-02-15T04:13:13;8.00;;;4.40;;
41512;SDS011;27244;59.940;30.280;2023-02-15T04:15:40;8.20;;;4.10;;
41512;SDS011;27244;59.940;30.280;2023-02-15T04:18:24;6.88;;;4.10;;
41512;SDS011;27244;59.940;30.280;2023-02-15T04:21:10;8.45;;;4.32;;
41512;SDS011;27244;59.940;30.280;2023-02-15T04:23:54;10.45;;;4.47;;
41512;SDS011;27244;59.940;30.280;2023-02-15T04:26:38;7.88;;;4.13;;
41512;SDS011;27244;59.940;30.280;2023-02-15T04:29:05;7.68;;;4.00;;
41512;SDS011;27244;59.940;30.280;2023-02-15T04:31:32;6.75;;;4.10;;
41512;SDS011;27244;59.940;30.280;2023-02-15T04:33:59;8.73;;;4.47;;
41512;SDS011;27244;59.940;30.280;2023-02-15T04:36:28;9.02;;;4.10;;
41512;SDS011;27244;59.940;30.280;2023-02-15T04:38:55;9.95;;;4.50;;
41512;SDS011;27244;59.940;30.280;2023-02-15T04:41:22;6.63;;;3.65;;
41512;SDS011;27244;59.940;30.280;2023-02-15T04:43:49;6.38;;;4.18;;
41512;SDS011;27244;59.940;30.280;2023-02-15T04:46:16;6.40;;;4.20;;
41512;SDS011;27244;59.940;30.280;2023-02-15T04:48:43;7.32;;;3.92;;
41512;SDS011;27244;59.940;30.280;2023-02-15T04:51:10;7.72;;;4.20;;
41512;SDS011;27244;59.940;30.280;2023-02-15T04:53:38;6.57;;;3.97;;
41512;SDS011;27244;59.940;30.280;2023-02-15T04:56:05;6.85;;;3.78;;
41512;SDS011;27244;59.940;30.280;2023-02-15T04:58:32;6.60;;;3.70;;
41512;SDS011;27244;59.940;30.280;2023-02-15T05:01:00;8.43;;;4.03;;
41512;SDS011;27244;59.940;30.280;2023-02-15T05:03:27;8.25;;;4.55;;
41512;SDS011;27244;59.940;30.280;2023-02-15T05:05:54;7.90;;;4.32;;
41512;SDS011;27244;59.940;30.280;2023-02-15T05:08:21;9.10;;;4.55;;
41512;SDS011;27244;59.940;30.280;2023-02-15T05:10:49;10.32;;;4.88;;
41512;SDS011;27244;59.940;30.280;2023-02-15T05:13:16;8.43;;;4.60;;
41512;SDS011;27244;59.940;30.280;2023-02-15T05:15:46;8.32;;;4.00;;
41512;SDS011;27244;59.940;30.280;2023-02-15T05:18:14;10.18;;;5.20;;
41512;SDS011;27244;59.940;30.280;2023-02-15T05:20:41;6.57;;;4.32;;
41512;SDS011;27244;59.940;30.280;2023-02-15T05:23:09;9.77;;;5.13;;
41512;SDS011;27244;59.940;30.280;2023-02-15T05:25:36;9.60;;;5.00;;
41512;SDS011;27244;59.940;30.280;2023-02-15T05:28:22;9.48;;;4.72;;
41512;SDS011;27244;59.940;30.280;2023-02-15T05:30:57;10.00;;;4.50;;
41512;SDS011;27244;59.940;30.280;2023-02-15T05:33:29;7.45;;;4.15;;
41512;SDS011;27244;59.940;30.280;2023-02-15T05:35:56;9.48;;;4.25;;
41512;SDS011;27244;59.940;30.280;2023-02-15T05:38:23;10.48;;;4.47;;
41512;SDS011;27244;59.940;30.280;2023-02-15T05:40:50;7.75;;;3.70;;
41512;SDS011;27244;59.940;30.280;2023-02-15T05:43:17;9.07;;;4.00;;
41512;SDS011;27244;59.940;30.280;2023-02-15T05:45:46;9.93;;;4.20;;
41512;SDS011;27244;59.940;30.280;2023-02-15T05:48:13;7.05;;;4.25;;
41512;SDS011;27244;59.940;30.280;2023-02-15T05:50:41;7.65;;;3.85;;
41512;SDS011;27244;59.940;30.280;2023-02-15T05:53:08;6.47;;;3.53;;
41512;SDS011;27244;59.940;30.280;2023-02-15T05:55:36;8.82;;;3.67;;
41512;SDS011;27244;59.940;30.280;2023-02-15T05:58:04;6.60;;;3.13;;
41512;SDS011;27244;59.940;30.280;2023-02-15T06:00:31;6.53;;;3.47;;
41512;SDS011;27244;59.940;30.280;2023-02-15T06:02:59;11.27;;;3.40;;
41512;SDS011;27244;59.940;30.280;2023-02-15T06:05:30;5.15;;;3.45;;
41512;SDS011;27244;59.940;30.280;2023-02-15T06:07:57;4.20;;;3.17;;
41512;SDS011;27244;59.940;30.280;2023-02-15T06:10:24;6.65;;;3.33;;
41512;SDS011;27244;59.940;30.280;2023-02-15T06:12:51;6.40;;;3.35;;
41512;SDS011;27244;59.940;30.280;2023-02-15T06:15:18;4.65;;;2.92;;
41512;SDS011;27244;59.940;30.280;2023-02-15T06:17:45;4.43;;;2.80;;
41512;SDS011;27244;59.940;30.280;2023-02-15T06:20:15;5.38;;;3.20;;
41512;SDS011;27244;59.940;30.280;2023-02-15T06:22:42;4.97;;;3.22;;
41512;SDS011;27244;59.940;30.280;2023-02-15T06:25:09;4.82;;;3.00;;
41512;SDS011;27244;59.940;30.280;2023-02-15T06:27:36;6.57;;;3.30;;
41512;SDS011;27244;59.940;30.280;2023-02-15T06:30:04;4.97;;;2.97;;
41512;SDS011;27244;59.940;30.280;2023-02-15T06:32:32;8.35;;;2.78;;
41512;SDS011;27244;59.940;30.280;2023-02-15T06:34:59;4.68;;;3.05;;
41512;SDS011;27244;59.940;30.280;2023-02-15T06:37:27;8.00;;;3.40;;
41512;SDS011;27244;59.940;30.280;2023-02-15T06:39:55;16.70;;;3.72;;
41512;SDS011;27244;59.940;30.280;2023-02-15T06:42:22;5.03;;;3.33;;
41512;SDS011;27244;59.940;30.280;2023-02-15T06:44:49;5.55;;;3.60;;
41512;SDS011;27244;59.940;30.280;2023-02-15T06:47:16;5.38;;;3.40;;
41512;SDS011;27244;59.940;30.280;2023-02-15T06:49:43;5.05;;;3.72;;
41512;SDS011;27244;59.940;30.280;2023-02-15T06:52:10;5.95;;;3.75;;
41512;SDS011;27244;59.940;30.280;2023-02-15T06:54:38;4.97;;;3.70;;
41512;SDS011;27244;59.940;30.280;2023-02-15T06:57:08;5.05;;;3.95;;
41512;SDS011;27244;59.940;30.280;2023-02-15T06:59:35;5.60;;;3.92;;
41512;SDS011;27244;59.940;30.280;2023-02-15T07:02:02;5.60;;;4.70;;
41512;SDS011;27244;59.940;30.280;2023-02-15T07:04:29;6.10;;;5.03;;
41512;SDS011;27244;59.940;30.280;2023-02-15T07:06:56;6.65;;;5.13;;
41512;SDS011;27244;59.940;30.280;2023-02-15T07:09:23;5.50;;;4.60;;
41512;SDS011;27244;59.940;30.280;2023-02-15T07:11:52;8.32;;;5.70;;
41512;SDS011;27244;59.940;30.280;2023-02-15T07:14:36;8.07;;;5.55;;
41512;SDS011;27244;59.940;30.280;2023-02-15T07:17:03;9.95;;;5.88;;
41512;SDS011;27244;59.940;30.280;2023-02-15T07:19:30;12.52;;;5.95;;
41512;SDS011;27244;59.940;30.280;2023-02-15T07:21:59;8.90;;;5.38;;
41512;SDS011;27244;59.940;30.280;2023-02-15T07:24:26;7.32;;;5.55;;
41512;SDS011;27244;59.940;30.280;2023-02-15T07:26:56;7.55;;;5.55;;
41512;SDS011;27244;59.940;30.280;2023-02-15T07:29:23;11.80;;;6.05;;
41512;SDS011;27244;59.940;30.280;2023-02-15T07:31:50;9.68;;;6.45;;
41512;SDS011;27244;59.940;30.280;2023-02-15T07:34:17;10.57;;;6.15;;
41512;SDS011;27244;59.940;30.280;2023-02-15T07:36:44;9.15;;;6.70;;
41512;SDS011;27244;59.940;30.280;2023-02-15T07:39:12;17.05;;;6.93;;
41512;SDS011;27244;59.940;30.280;2023-02-15T07:41:39;11.52;;;7.03;;
41512;SDS011;27244;59.940;30.280;2023-02-15T07:44:12;13.35;;;7.60;;
41512;SDS011;27244;59.940;30.280;2023-02-15T07:46:40;14.70;;;7.43;;
41512;SDS011;27244;59.940;30.280;2023-02-15T07:49:07;14.45;;;7.78;;
41512;SDS011;27244;59.940;30.280;2023-02-15T07:51:35;14.02;;;8.40;;
41512;SDS011;27244;59.940;30.280;2023-02-15T07:54:02;15.20;;;8.93;;
41512;SDS011;27244;59.940;30.280;2023-02-15T07:56:31;13.40;;;8.55;;
41512;SDS011;27244;59.940;30.280;2023-02-15T07:58:58;15.38;;;8.98;;
41512;SDS011;27244;59.940;30.280;2023-02-15T08:01:30;16.60;;;8.82;;
41512;SDS011;27244;59.940;30.280;2023-02-15T08:04:00;16.48;;;9.40;;
41512;SDS011;27244;59.940;30.280;2023-02-15T08:06:28;14.55;;;8.90;;
41512;SDS011;27244;59.940;30.280;2023-02-15T08:08:56;15.20;;;9.00;;
41512;SDS011;27244;59.940;30.280;2023-02-15T08:11:24;15.68;;;9.18;;
41512;SDS011;27244;59.940;30.280;2023-02-15T08:13:55;17.45;;;9.15;;
41512;SDS011;27244;59.940;30.280;2023-02-15T08:16:25;17.08;;;9.38;;
41512;SDS011;27244;59.940;30.280;2023-02-15T08:18:56;46.38;;;10.77;;
41512;SDS011;27244;59.940;30.280;2023-02-15T08:23:57;17.77;;;10.43;;
41512;SDS011;27244;59.940;30.280;2023-02-15T08:26:25;18.90;;;10.82;;
41512;SDS011;27244;59.940;30.280;2023-02-15T08:28:53;18.67;;;9.88;;
41512;SDS011;27244;59.940;30.280;2023-02-15T08:31:21;17.08;;;9.95;;
41512;SDS011;27244;59.940;30.280;2023-02-15T08:33:48;21.00;;;9.75;;
41512;SDS011;27244;59.940;30.280;2023-02-15T08:36:18;17.05;;;10.43;;
41512;SDS011;27244;59.940;30.280;2023-02-15T08:38:47;14.90;;;9.98;;
41512;SDS011;27244;59.940;30.280;2023-02-15T08:41:15;19.75;;;10.63;;
41512;SDS011;27244;59.940;30.280;2023-02-15T08:43:44;15.50;;;9.95;;
41512;SDS011;27244;59.940;30.280;2023-02-15T08:46:13;18.50;;;11.02;;
41512;SDS011;27244;59.940;30.280;2023-02-15T08:48:41;16.92;;;10.57;;
41512;SDS011;27244;59.940;30.280;2023-02-15T08:51:09;16.42;;;10.38;;
41512;SDS011;27244;59.940;30.280;2023-02-15T08:53:39;20.25;;;10.93;;
41512;SDS011;27244;59.940;30.280;2023-02-15T08:56:08;17.33;;;10.88;;
41512;SDS011;27244;59.940;30.280;2023-02-15T08:58:36;16.98;;;11.18;;
41512;SDS011;27244;59.940;30.280;2023-02-15T09:01:08;18.65;;;11.77;;
41512;SDS011;27244;59.940;30.280;2023-02-15T09:03:36;17.67;;;12.02;;
41512;SDS011;27244;59.940;30.280;2023-02-15T09:06:03;16.35;;;11.73;;
41512;SDS011;27244;59.940;30.280;2023-02-15T09:08:30;21.35;;;11.95;;
41512;SDS011;27244;59.940;30.280;2023-02-15T09:11:09;16.23;;;11.88;;
41512;SDS011;27244;59.940;30.280;2023-02-15T09:13:38;17.20;;;12.18;;
41512;SDS011;27244;59.940;30.280;2023-02-15T09:16:06;19.65;;;12.27;;
41512;SDS011;27244;59.940;30.280;2023-02-15T09:18:36;16.65;;;11.00;;
41512;SDS011;27244;59.940;30.280;2023-02-15T09:21:05;18.25;;;11.57;;
41512;SDS011;27244;59.940;30.280;2023-02-15T09:23:34;16.95;;;10.55;;
41512;SDS011;27244;59.940;30.280;2023-02-15T09:26:02;15.38;;;11.00;;
41512;SDS011;27244;59.940;30.280;2023-02-15T09:28:32;20.15;;;11.63;;
41512;SDS011;27244;59.940;30.280;2023-02-15T09:31:09;20.80;;;11.20;;
41512;SDS011;27244;59.940;30.280;2023-02-15T09:33:38;18.23;;;11.13;;
41512;SDS011;27244;59.940;30.280;2023-02-15T09:36:15;14.88;;;10.30;;
41512;SDS011;27244;59.940;30.280;2023-02-15T09:38:44;19.33;;;10.35;;
41512;SDS011;27244;59.940;30.280;2023-02-15T09:44:22;15.93;;;10.43;;
41512;SDS011;27244;59.940;30.280;2023-02-15T09:47:09;15.05;;;9.63;;
41512;SDS011;27244;59.940;30.280;2023-02-15T09:49:53;18.30;;;11.07;;
41512;SDS011;27244;59.940;30.280;2023-02-15T09:52:34;16.70;;;10.68;;
41512;SDS011;27244;59.940;30.280;2023-02-15T09:55:17;15.27;;;9.77;;
41512;SDS011;27244;59.940;30.280;2023-02-15T09:57:54;14.77;;;10.10;;
41512;SDS011;27244;59.940;30.280;2023-02-15T10:00:31;14.82;;;9.93;;
41512;SDS011;27244;59.940;30.280;2023-02-15T10:03:18;12.85;;;10.30;;
41512;SDS011;27244;59.940;30.280;2023-02-15T10:06:02;14.50;;;10.13;;
41512;SDS011;27244;59.940;30.280;2023-02-15T10:09:03;13.27;;;9.60;;
41512;SDS011;27244;59.940;30.280;2023-02-15T10:11:57;16.10;;;10.97;;
41512;SDS011;27244;59.940;30.280;2023-02-15T10:14:44;14.05;;;9.75;;
41512;SDS011;27244;59.940;30.280;2023-02-15T10:17:30;14.10;;;10.20;;
41512;SDS011;27244;59.940;30.280;2023-02-15T10:22:41;15.25;;;9.98;;
41512;SDS011;27244;59.940;30.280;2023-02-15T10:25:26;15.52;;;10.70;;
41512;SDS011;27244;59.940;30.280;2023-02-15T10:27:59;15.05;;;10.95;;
41512;SDS011;27244;59.940;30.280;2023-02-15T10:30:34;16.52;;;10.63;;
41512;SDS011;27244;59.940;30.280;2023-02-15T10:33:11;15.38;;;10.77;;
41512;SDS011;27244;59.940;30.280;2023-02-15T10:35:52;16.92;;;9.80;;
41512;SDS011;27244;59.940;30.280;2023-02-15T10:38:29;15.90;;;10.10;;
41512;SDS011;27244;59.940;30.280;2023-02-15T10:41:07;15.90;;;9.55;;
41512;SDS011;27244;59.940;30.280;2023-02-15T10:43:46;20.73;;;10.23;;
41512;SDS011;27244;59.940;30.280;2023-02-15T10:46:28;18.70;;;10.30;;
41512;SDS011;27244;59.940;30.280;2023-02-15T10:49:14;18.52;;;9.85;;
41512;SDS011;27244;59.940;30.280;2023-02-15T10:52:04;18.85;;;9.88;;
41512;SDS011;27244;59.940;30.280;2023-02-15T10:54:41;17.33;;;9.60;;
41512;SDS011;27244;59.940;30.280;2023-02-15T10:57:14;15.45;;;9.73;;
41512;SDS011;27244;59.940;30.280;2023-02-15T10:59:51;16.80;;;9.85;;
41512;SDS011;27244;59.940;30.280;2023-02-15T11:02:39;16.27;;;9.07;;
41512;SDS011;27244;59.940;30.280;2023-02-15T11:05:29;16.77;;;9.27;;
41512;SDS011;27244;59.940;30.280;2023-02-15T11:08:07;15.63;;;9.05;;
41512;SDS011;27244;59.940;30.280;2023-02-15T11:10:37;16.23;;;9.10;;
41512;SDS011;27244;59.940;30.280;2023-02-15T11:13:09;14.98;;;9.10;;
41512;SDS011;27244;59.940;30.280;2023-02-15T11:15:41;14.40;;;8.63;;
41512;SDS011;27244;59.940;30.280;2023-02-15T11:18:14;16.98;;;9.27;;
41512;SDS011;27244;59.940;30.280;2023-02-15T11:20:51;14.52;;;8.57;;
41512;SDS011;27244;59.940;30.280;2023-02-15T11:23:22;15.02;;;8.48;;
41512;SDS011;27244;59.940;30.280;2023-02-15T11:25:53;13.50;;;8.63;;
41512;SDS011;27244;59.940;30.280;2023-02-15T11:28:25;13.23;;;8.75;;
41512;SDS011;27244;59.940;30.280;2023-02-15T11:30:57;14.23;;;8.27;;
41512;SDS011;27244;59.940;30.280;2023-02-15T11:33:29;13.20;;;8.75;;
41512;SDS011;27244;59.940;30.280;2023-02-15T11:36:04;13.48;;;8.82;;
41512;SDS011;27244;59.940;30.280;2023-02-15T11:38:35;11.57;;;8.27;;
41512;SDS011;27244;59.940;30.280;2023-02-15T11:41:05;13.10;;;8.50;;
41512;SDS011;27244;59.940;30.280;2023-02-15T11:43:37;14.32;;;8.07;;
41512;SDS011;27244;59.940;30.280;2023-02-15T11:46:10;11.02;;;7.85;;
41512;SDS011;27244;59.940;30.280;2023-02-15T11:48:40;12.83;;;7.40;;
41512;SDS011;27244;59.940;30.280;2023-02-15T11:51:11;14.40;;;7.93;;
41512;SDS011;27244;59.940;30.280;2023-02-15T11:53:42;13.85;;;8.40;;
41512;SDS011;27244;59.940;30.280;2023-02-15T11:56:13;13.23;;;8.10;;
41512;SDS011;27244;59.940;30.280;2023-02-15T11:58:43;12.00;;;7.38;;
41512;SDS011;27244;59.940;30.280;2023-02-15T12:01:15;12.82;;;8.30;;
41512;SDS011;27244;59.940;30.280;2023-02-15T12:03:46;11.25;;;7.40;;
41512;SDS011;27244;59.940;30.280;2023-02-15T12:06:18;10.55;;;7.07;;
41512;SDS011;27244;59.940;30.280;2023-02-15T12:08:52;10.43;;;7.55;;
41512;SDS011;27244;59.940;30.280;2023-02-15T12:11:26;12.27;;;7.57;;
41512;SDS011;27244;59.940;30.280;2023-02-15T12:13:59;10.40;;;7.00;;
41512;SDS011;27244;59.940;30.280;2023-02-15T12:16:28;10.90;;;7.20;;
41512;SDS011;27244;59.940;30.280;2023-02-15T12:18:58;11.25;;;7.57;;
41512;SDS011;27244;59.940;30.280;2023-02-15T12:21:30;11.23;;;7.47;;
41512;SDS011;27244;59.940;30.280;2023-02-15T12:24:00;11.40;;;7.57;;
41512;SDS011;27244;59.940;30.280;2023-02-15T12:26:30;9.52;;;6.88;;
41512;SDS011;27244;59.940;30.280;2023-02-15T12:29:00;9.27;;;7.13;;
41512;SDS011;27244;59.940;30.280;2023-02-15T12:31:35;9.85;;;6.93;;
41512;SDS011;27244;59.940;30.280;2023-02-15T12:34:08;10.30;;;7.10;;
41512;SDS011;27244;59.940;30.280;2023-02-15T12:36:42;10.85;;;6.80;;
41512;SDS011;27244;59.940;30.280;2023-02-15T12:39:19;10.23;;;6.38;;
41512;SDS011;27244;59.940;30.280;2023-02-15T12:41:57;9.18;;;7.07;;
41512;SDS011;27244;59.940;30.280;2023-02-15T12:44:28;9.00;;;6.60;;
41512;SDS011;27244;59.940;30.280;2023-02-15T12:46:57;9.32;;;6.97;;
41512;SDS011;27244;59.940;30.280;2023-02-15T12:49:25;10.05;;;7.55;;
41512;SDS011;27244;59.940;30.280;2023-02-15T12:51:55;10.13;;;7.55;;
41512;SDS011;27244;59.940;30.280;2023-02-15T12:59:57;11.15;;;7.78;;
41512;SDS011;27244;59.940;30.280;2023-02-15T13:02:30;9.63;;;7.65;;
41512;SDS011;27244;59.940;30.280;2023-02-15T13:05:07;9.88;;;7.60;;
41512;SDS011;27244;59.940;30.280;2023-02-15T13:07:50;12.00;;;8.00;;
41512;SDS011;27244;59.940;30.280;2023-02-15T13:10:21;10.15;;;8.10;;
41512;SDS011;27244;59.940;30.280;2023-02-15T13:12:51;9.95;;;7.15;;
41512;SDS011;27244;59.940;30.280;2023-02-15T13:15:23;10.88;;;7.80;;
41512;SDS011;27244;59.940;30.280;2023-02-15T13:17:57;11.27;;;8.13;;
41512;SDS011;27244;59.940;30.280;2023-02-15T13:20:25;11.88;;;8.75;;
41512;SDS011;27244;59.940;30.280;2023-02-15T13:22:58;11.07;;;8.73;;
41512;SDS011;27244;59.940;30.280;2023-02-15T13:25:27;11.68;;;8.68;;
41512;SDS011;27244;59.940;30.280;2023-02-15T13:27:57;13.13;;;9.80;;
41512;SDS011;27244;59.940;30.280;2023-02-15T13:30:28;11.02;;;8.90;;
41512;SDS011;27244;59.940;30.280;2023-02-15T13:33:02;10.98;;;8.77;;
41512;SDS011;27244;59.940;30.280;2023-02-15T13:35:35;11.70;;;9.07;;
41512;SDS011;27244;59.940;30.280;2023-02-15T13:38:09;10.68;;;8.73;;
41512;SDS011;27244;59.940;30.280;2023-02-15T13:40:48;12.60;;;9.45;;
41512;SDS011;27244;59.940;30.280;2023-02-15T13:43:23;12.90;;;9.43;;
41512;SDS011;27244;59.940;30.280;2023-02-15T13:46:00;11.60;;;8.90;;
41512;SDS011;27244;59.940;30.280;2023-02-15T13:48:40;13.68;;;9.82;;
41512;SDS011;27244;59.940;30.280;2023-02-15T13:51:15;13.40;;;9.57;;
41512;SDS011;27244;59.940;30.280;2023-02-15T13:57:04;14.02;;;9.32;;
41512;SDS011;27244;59.940;30.280;2023-02-15T13:59:46;13.13;;;9.13;;
41512;SDS011;27244;59.940;30.280;2023-02-15T14:02:30;12.80;;;9.10;;
41512;SDS011;27244;59.940;30.280;2023-02-15T14:05:15;12.25;;;9.07;;
41512;SDS011;27244;59.940;30.280;2023-02-15T14:07:56;13.02;;;9.45;;
41512;SDS011;27244;59.940;30.280;2023-02-15T14:10:38;11.85;;;8.57;;
41512;SDS011;27244;59.940;30.280;2023-02-15T14:16:08;12.15;;;8.90;;
41512;SDS011;27244;59.940;30.280;2023-02-15T14:18:42;12.77;;;9.40;;
41512;SDS011;27244;59.940;30.280;2023-02-15T14:21:16;13.13;;;9.75;;
41512;SDS011;27244;59.940;30.280;2023-02-15T14:23:53;12.02;;;9.27;;
41512;SDS011;27244;59.940;30.280;2023-02-15T14:26:34;11.77;;;9.50;;
41512;SDS011;27244;59.940;30.280;2023-02-15T14:29:10;11.93;;;9.82;;
41512;SDS011;27244;59.940;30.280;2023-02-15T14:31:47;12.93;;;9.77;;
41512;SDS011;27244;59.940;30.280;2023-02-15T14:34:20;13.60;;;10.45;;
41512;SDS011;27244;59.940;30.280;2023-02-15T14:36:49;12.67;;;10.53;;
41512;SDS011;27244;59.940;30.280;2023-02-15T14:39:22;13.00;;;9.95;;
41512;SDS011;27244;59.940;30.280;2023-02-15T14:42:15;12.82;;;10.55;;
41512;SDS011;27244;59.940;30.280;2023-02-15T14:44:49;15.00;;;11.35;;
41512;SDS011;27244;59.940;30.280;2023-02-15T14:47:25;13.98;;;11.05;;
41512;SDS011;27244;59.940;30.280;2023-02-15T14:49:58;13.40;;;10.80;;
41512;SDS011;27244;59.940;30.280;2023-02-15T14:52:25;12.77;;;10.88;;
41512;SDS011;27244;59.940;30.280;2023-02-15T14:54:53;17.23;;;11.48;;
41512;SDS011;27244;59.940;30.280;2023-02-15T14:57:33;14.25;;;12.02;;
41512;SDS011;27244;59.940;30.280;2023-02-15T15:00:04;14.47;;;12.40;;
41512;SDS011;27244;59.940;30.280;2023-02-15T15:03:06;15.40;;;12.52;;
41512;SDS011;27244;59.940;30.280;2023-02-15T15:05:46;14.77;;;12.48;;
41512;SDS011;27244;59.940;30.280;2023-02-15T15:08:21;13.48;;;12.00;;
41512;SDS011;27244;59.940;30.280;2023-02-15T15:10:51;16.08;;;14.20;;
41512;SDS011;27244;59.940;30.280;2023-02-15T15:13:35;15.63;;;13.93;;
41512;SDS011;27244;59.940;30.280;2023-02-15T15:16:25;17.27;;;14.05;;
41512;SDS011;27244;59.940;30.280;2023-02-15T15:18:55;17.48;;;13.90;;